Time;durP1;ratioP1;P1;durP2;ratioP2;P2;SDS_P1;SDS_P2;PMS_P1;PMS_P2;Temp;Humidity;BMP_temperature;BMP_pressure;BME280_temperature;BME280_humidity;BME280_pressure;Samples;Min_cycle;Max_cycle;Signal;HPM_P1;HPM_P2
2021/08/31 00:01:43;;;;;;;2.17;2.08;;;19.80;98.00;;;;;;5104716;28;20027;-77
2021/08/31 00:04:09;;;;;;;2.83;1.77;;;19.80;98.00;;;;;;5109435;28;20039;-77
2021/08/31 00:06:34;;;;;;;1.52;1.25;;;19.80;97.90;;;;;;5107876;28;20027;-77
2021/08/31 00:09:00;;;;;;;2.10;1.42;;;19.80;97.80;;;;;;5106361;28;20103;-77
2021/08/31 00:11:31;;;;;;;1.50;1.40;;;19.80;97.80;;;;;;5105909;28;20027;-77
2021/08/31 00:14:00;;;;;;;1.98;1.10;;;19.80;97.90;;;;;;5109159;28;20027;-77
2021/08/31 00:16:26;;;;;;;1.05;1.05;;;19.80;97.70;;;;;;5107158;28;20038;-77
2021/08/31 00:18:52;;;;;;;1.40;1.30;;;19.80;97.80;;;;;;5109219;28;20045;-77
2021/08/31 00:21:18;;;;;;;1.55;1.20;;;19.90;97.90;;;;;;5107675;28;20031;-77
2021/08/31 00:23:44;;;;;;;1.00;1.00;;;19.80;97.70;;;;;;5109753;28;20012;-77
2021/08/31 00:26:10;;;;;;;2.15;0.90;;;19.80;98.00;;;;;;5091211;28;20019;-77
2021/08/31 00:28:36;;;;;;;3.20;1.20;;;19.80;98.00;;;;;;5094748;28;20371;-77
2021/08/31 00:31:02;;;;;;;2.25;1.10;;;19.80;98.10;;;;;;5110940;28;20106;-77
2021/08/31 00:33:28;;;;;;;2.65;1.50;;;19.80;98.20;;;;;;5112427;28;20085;-77
2021/08/31 00:35:58;;;;;;;1.60;1.17;;;19.80;98.30;;;;;;5111851;28;20028;-76
2021/08/31 00:38:24;;;;;;;0.95;0.90;;;19.80;98.20;;;;;;5112080;28;20498;-76
2021/08/31 00:40:50;;;;;;;1.13;1.05;;;19.80;98.30;;;;;;5110153;28;20024;-77
2021/08/31 00:43:19;;;;;;;1.55;1.00;;;19.80;98.10;;;;;;5112519;28;20077;-77
2021/08/31 00:45:49;;;;;;;1.02;1.02;;;19.80;97.90;;;;;;5092179;28;20567;-77
2021/08/31 00:48:17;;;;;;;1.13;1.02;;;19.90;97.70;;;;;;5112430;28;20015;-77
2021/08/31 00:50:46;;;;;;;0.80;0.80;;;19.90;97.70;;;;;;5092639;28;20513;-77
2021/08/31 00:53:12;;;;;;;1.48;1.38;;;19.90;97.60;;;;;;5112424;28;20062;-77
2021/08/31 00:55:38;;;;;;;1.10;1.00;;;19.90;97.80;;;;;;5110215;28;20055;-77
2021/08/31 00:58:04;;;;;;;1.85;1.08;;;19.90;97.70;;;;;;5094503;28;20019;-77
2021/08/31 01:00:30;;;;;;;1.38;1.20;;;19.90;97.70;;;;;;5109848;28;20031;-77
2021/08/31 01:02:56;;;;;;;2.60;0.88;;;19.90;97.70;;;;;;5111689;28;20099;-77
2021/08/31 01:05:22;;;;;;;0.80;0.80;;;19.80;97.80;;;;;;5111462;28;20118;-77
2021/08/31 01:07:48;;;;;;;1.30;1.10;;;19.80;97.70;;;;;;5111694;28;20458;-77
2021/08/31 01:10:15;;;;;;;0.80;0.77;;;19.80;97.80;;;;;;5092218;28;20047;-76
2021/08/31 01:12:45;;;;;;;1.35;1.10;;;19.90;98.00;;;;;;5093397;28;20032;-77
2021/08/31 01:15:15;;;;;;;1.23;1.13;;;19.80;97.90;;;;;;5091340;28;20115;-77
2021/08/31 01:17:41;;;;;;;0.80;0.80;;;19.80;98.10;;;;;;5111513;28;20027;-77
2021/08/31 01:20:07;;;;;;;1.10;1.00;;;19.70;98.20;;;;;;5092518;28;20019;-77
2021/08/31 01:22:33;;;;;;;0.80;0.80;;;19.70;98.30;;;;;;5092972;28;20024;-77
2021/08/31 01:25:05;;;;;;;0.95;0.95;;;19.70;98.60;;;;;;5110447;28;20570;-77
2021/08/31 01:27:31;;;;;;;1.60;1.50;;;19.60;98.50;;;;;;5111959;28;20039;-77
2021/08/31 01:29:59;;;;;;;1.17;1.08;;;19.60;98.60;;;;;;5109322;28;20027;-77
2021/08/31 01:32:26;;;;;;;1.30;1.20;;;19.60;99.00;;;;;;5111438;28;20027;-77
2021/08/31 01:34:52;;;;;;;0.82;0.82;;;19.60;99.10;;;;;;5092479;28;20023;-77
2021/08/31 01:37:18;;;;;;;0.90;0.90;;;19.60;98.80;;;;;;5109947;28;20019;-77
2021/08/31 01:39:44;;;;;;;1.27;1.00;;;19.60;98.70;;;;;;5091523;28;20096;-77
2021/08/31 01:42:10;;;;;;;1.10;1.05;;;19.60;98.70;;;;;;5111202;28;20020;-77
2021/08/31 01:44:36;;;;;;;0.90;0.90;;;19.60;98.60;;;;;;5109275;28;20674;-77
2021/08/31 01:47:02;;;;;;;0.70;0.70;;;19.60;98.70;;;;;;5111498;28;20066;-77
2021/08/31 01:49:28;;;;;;;2.17;1.00;;;19.60;98.60;;;;;;5091444;28;20028;-77
2021/08/31 01:51:54;;;;;;;1.25;1.02;;;19.70;98.60;;;;;;5112398;28;20023;-75
2021/08/31 01:54:20;;;;;;;1.38;0.73;;;19.70;98.60;;;;;;5114288;28;20034;-75
2021/08/31 01:56:45;;;;;;;1.20;0.77;;;19.70;98.50;;;;;;5114406;28;20062;-75
2021/08/31 01:59:11;;;;;;;0.68;0.68;;;19.70;98.40;;;;;;5114195;28;20057;-75
2021/08/31 02:01:40;;;;;;;7.05;1.20;;;19.70;98.40;;;;;;5114285;28;20160;-75
2021/08/31 02:04:07;;;;;;;1.05;1.00;;;19.60;98.50;;;;;;5092059;28;20348;-76
2021/08/31 02:06:32;;;;;;;1.23;1.10;;;19.60;98.50;;;;;;5114299;28;20076;-75
2021/08/31 02:08:58;;;;;;;0.82;0.82;;;19.60;98.50;;;;;;5095924;28;20031;-75
2021/08/31 02:11:24;;;;;;;1.70;1.00;;;19.60;98.40;;;;;;5114141;28;20081;-76
2021/08/31 02:13:49;;;;;;;1.67;1.15;;;19.60;98.20;;;;;;5114100;28;20399;-75
2021/08/31 02:16:15;;;;;;;0.85;0.85;;;19.50;98.50;;;;;;5113770;28;20068;-75
2021/08/31 02:18:42;;;;;;;0.90;0.90;;;19.60;98.30;;;;;;5113865;28;20530;-76
2021/08/31 02:21:09;;;;;;;1.10;1.00;;;19.50;98.20;;;;;;5113991;28;20060;-75
2021/08/31 02:23:39;;;;;;;0.85;0.80;;;19.50;98.30;;;;;;5113720;28;20034;-75
2021/08/31 02:26:05;;;;;;;0.80;0.80;;;19.50;98.30;;;;;;5113947;28;20062;-75
2021/08/31 02:28:30;;;;;;;1.27;0.98;;;19.50;98.60;;;;;;5113967;28;20044;-75
2021/08/31 02:30:56;;;;;;;0.88;0.88;;;19.50;98.50;;;;;;5113850;28;20055;-76
2021/08/31 02:33:22;;;;;;;1.02;0.90;;;19.40;98.60;;;;;;5113548;28;20647;-75
2021/08/31 02:35:48;;;;;;;0.90;0.90;;;19.40;98.80;;;;;;5113628;28;20100;-75
2021/08/31 02:38:14;;;;;;;1.27;1.17;;;19.40;98.80;;;;;;5113539;28;20051;-75
2021/08/31 02:40:40;;;;;;;1.83;1.10;;;19.30;98.80;;;;;;5113673;28;20030;-75
2021/08/31 02:43:05;;;;;;;1.85;1.00;;;19.20;98.90;;;;;;5113591;28;20077;-75
2021/08/31 02:45:31;;;;;;;1.70;1.17;;;19.20;99.10;;;;;;5113557;28;20027;-75
2021/08/31 02:47:57;;;;;;;1.05;1.00;;;19.20;99.20;;;;;;5113063;28;20475;-75
2021/08/31 02:50:23;;;;;;;2.47;0.93;;;19.20;99.30;;;;;;5112921;28;20055;-75
2021/08/31 02:52:49;;;;;;;0.77;0.70;;;19.10;99.20;;;;;;5103771;28;20471;-75
2021/08/31 02:55:15;;;;;;;1.27;0.82;;;19.10;99.40;;;;;;5113409;28;20031;-75
2021/08/31 02:57:41;;;;;;;2.45;0.85;;;19.00;99.50;;;;;;5113246;28;20061;-75
2021/08/31 03:00:08;;;;;;;0.82;0.82;;;19.00;99.80;;;;;;5113383;28;20028;-75
2021/08/31 03:02:34;;;;;;;1.17;1.17;;;18.90;99.80;;;;;;5095009;28;20012;-75
2021/08/31 03:05:00;;;;;;;2.05;0.82;;;18.90;99.80;;;;;;5113072;28;20032;-75
2021/08/31 03:07:25;;;;;;;2.67;1.25;;;18.80;99.80;;;;;;5112734;28;20038;-75
2021/08/31 03:09:52;;;;;;;1.00;1.00;;;18.80;99.90;;;;;;5113305;28;20180;-75
2021/08/31 03:12:18;;;;;;;3.60;1.00;;;18.80;99.80;;;;;;5113063;28;20129;-75
2021/08/31 03:14:44;;;;;;;1.20;1.00;;;18.80;99.80;;;;;;5113052;28;20080;-75
2021/08/31 03:17:11;;;;;;;1.45;1.23;;;18.80;99.90;;;;;;5112918;28;20027;-75
2021/08/31 03:19:37;;;;;;;1.55;0.98;;;18.80;99.90;;;;;;5112848;28;20031;-75
2021/08/31 03:22:03;;;;;;;0.98;0.90;;;18.80;99.80;;;;;;5112896;28;20494;-75
2021/08/31 03:24:31;;;;;;;0.90;0.90;;;18.80;99.80;;;;;;5094577;28;20038;-75
2021/08/31 03:26:57;;;;;;;2.22;0.93;;;18.70;99.70;;;;;;5113137;28;20087;-75
2021/08/31 03:29:22;;;;;;;2.22;0.85;;;18.80;99.80;;;;;;5112338;28;20024;-75
2021/08/31 03:31:48;;;;;;;1.10;1.00;;;18.70;99.70;;;;;;5113044;28;20367;-76
2021/08/31 03:34:14;;;;;;;2.70;1.13;;;18.80;99.80;;;;;;5110469;28;20023;-75
2021/08/31 03:36:40;;;;;;;1.08;1.00;;;18.80;99.80;;;;;;5112814;28;20028;-75
2021/08/31 03:39:06;;;;;;;1.30;1.10;;;18.60;99.90;;;;;;5112759;28;20036;-75
2021/08/31 03:41:32;;;;;;;1.30;1.00;;;18.60;99.90;;;;;;5112897;28;20062;-75
2021/08/31 03:43:58;;;;;;;0.73;0.73;;;18.60;99.90;;;;;;5112923;28;20023;-75
2021/08/31 03:46:24;;;;;;;1.50;0.90;;;18.50;99.90;;;;;;5112757;28;20019;-75
2021/08/31 03:48:50;;;;;;;1.05;0.80;;;18.60;99.90;;;;;;5112627;28;20804;-76
2021/08/31 03:51:15;;;;;;;1.05;1.05;;;18.60;99.90;;;;;;5112701;28;20073;-75
2021/08/31 03:53:42;;;;;;;0.88;0.80;;;18.70;99.90;;;;;;5112546;28;20363;-75
2021/08/31 03:56:08;;;;;;;0.75;0.75;;;18.60;99.90;;;;;;5094374;28;20371;-75
2021/08/31 03:58:33;;;;;;;1.23;1.00;;;18.60;99.90;;;;;;5094381;28;20022;-75
2021/08/31 04:00:59;;;;;;;0.90;0.90;;;18.50;99.90;;;;;;5115406;28;20016;-75
2021/08/31 04:03:25;;;;;;;0.88;0.88;;;18.50;99.90;;;;;;5116435;28;20149;-75
2021/08/31 04:05:50;;;;;;;1.63;1.25;;;18.40;99.90;;;;;;5116397;28;20410;-75
2021/08/31 04:08:16;;;;;;;3.13;1.10;;;18.40;99.90;;;;;;5116578;28;20104;-75
2021/08/31 04:10:42;;;;;;;3.13;1.00;;;18.40;99.90;;;;;;5116683;28;20065;-75
2021/08/31 04:13:10;;;;;;;1.02;0.90;;;18.40;99.90;;;;;;5116450;28;20076;-75
2021/08/31 04:15:36;;;;;;;1.10;0.90;;;18.40;99.90;;;;;;5116153;28;20019;-75
2021/08/31 04:18:02;;;;;;;1.23;0.90;;;18.30;99.90;;;;;;5116257;28;20629;-75
2021/08/31 04:20:28;;;;;;;0.90;0.90;;;18.30;99.90;;;;;;5096026;28;20023;-75
2021/08/31 04:22:54;;;;;;;2.22;0.93;;;18.30;99.90;;;;;;5095707;28;20359;-75
2021/08/31 04:25:20;;;;;;;1.45;1.10;;;18.40;99.90;;;;;;5095994;28;20028;-75
2021/08/31 04:27:46;;;;;;;1.23;1.13;;;18.40;99.90;;;;;;5102888;28;20024;-77
2021/08/31 04:30:12;;;;;;;1.50;1.40;;;18.30;99.90;;;;;;5098015;28;20497;-75
2021/08/31 04:32:39;;;;;;;3.88;1.40;;;18.30;99.90;;;;;;5116042;28;20026;-75
2021/08/31 04:35:05;;;;;;;0.98;0.90;;;18.30;99.90;;;;;;5115611;28;20020;-75
2021/08/31 04:37:31;;;;;;;1.08;1.08;;;18.30;99.90;;;;;;5097395;28;20067;-75
2021/08/31 04:39:58;;;;;;;1.00;1.00;;;18.30;99.90;;;;;;5115924;28;20020;-75
2021/08/31 04:42:23;;;;;;;2.60;1.00;;;18.20;99.90;;;;;;5097528;28;20038;-75
2021/08/31 04:44:49;;;;;;;1.30;1.20;;;18.20;99.90;;;;;;5115769;28;20401;-75
2021/08/31 04:47:16;;;;;;;1.80;1.08;;;18.20;99.90;;;;;;5097055;28;20028;-75
2021/08/31 04:49:41;;;;;;;0.90;0.90;;;18.20;99.90;;;;;;5115760;28;20413;-75
2021/08/31 04:52:08;;;;;;;1.40;1.00;;;18.20;99.90;;;;;;5115580;28;20130;-75
2021/08/31 04:54:34;;;;;;;1.25;1.17;;;18.20;99.90;;;;;;5115513;28;20026;-75
2021/08/31 04:56:59;;;;;;;2.10;1.20;;;18.10;99.90;;;;;;5115124;28;20024;-75
2021/08/31 04:59:25;;;;;;;2.55;1.13;;;18.10;99.90;;;;;;5097161;28;20081;-75
2021/08/31 05:01:51;;;;;;;3.50;1.20;;;18.10;99.90;;;;;;5097240;28;20020;-75
2021/08/31 05:04:18;;;;;;;1.55;1.45;;;18.10;99.90;;;;;;5115559;28;20016;-75
2021/08/31 05:06:43;;;;;;;1.30;1.10;;;18.10;99.90;;;;;;5115028;28;20371;-75
2021/08/31 05:09:09;;;;;;;1.27;1.23;;;18.20;99.90;;;;;;5096933;28;20030;-75
2021/08/31 05:11:35;;;;;;;1.35;1.25;;;18.20;99.90;;;;;;5115081;28;20027;-75
2021/08/31 05:14:01;;;;;;;1.08;1.08;;;18.20;99.90;;;;;;5115457;28;20043;-75
2021/08/31 05:16:27;;;;;;;5.47;1.40;;;18.30;99.90;;;;;;5115159;28;20024;-75
2021/08/31 05:18:52;;;;;;;1.98;1.45;;;18.30;99.90;;;;;;5114825;28;20439;-75
2021/08/31 05:21:18;;;;;;;1.33;1.17;;;18.40;99.90;;;;;;5114895;28;20613;-75
2021/08/31 05:23:44;;;;;;;1.20;1.20;;;18.40;99.90;;;;;;5114639;28;20024;-75
2021/08/31 05:26:10;;;;;;;1.30;1.20;;;18.40;99.90;;;;;;5115189;28;20027;-75
2021/08/31 05:28:35;;;;;;;2.47;1.20;;;18.40;99.90;;;;;;5114854;28;20072;-75
2021/08/31 05:31:01;;;;;;;1.00;0.90;;;18.40;99.90;;;;;;5114994;28;20032;-75
2021/08/31 05:33:27;;;;;;;4.20;1.20;;;18.40;99.90;;;;;;5114678;28;20502;-75
2021/08/31 05:35:52;;;;;;;2.38;1.17;;;18.50;99.90;;;;;;5114582;28;20467;-75
2021/08/31 05:38:18;;;;;;;1.10;1.00;;;18.60;99.90;;;;;;5114426;28;20089;-75
2021/08/31 05:40:44;;;;;;;2.25;1.20;;;18.60;99.90;;;;;;5114308;28;20016;-75
2021/08/31 05:43:09;;;;;;;1.83;1.10;;;18.60;99.90;;;;;;5114393;28;20024;-75
2021/08/31 05:45:35;;;;;;;1.50;1.40;;;18.60;99.90;;;;;;5096170;28;20139;-75
2021/08/31 05:48:01;;;;;;;1.15;1.02;;;18.50;99.90;;;;;;5095942;28;20471;-75
2021/08/31 05:50:26;;;;;;;2.00;1.10;;;18.60;99.90;;;;;;5096310;28;20084;-75
2021/08/31 05:52:52;;;;;;;1.40;1.25;;;18.50;99.90;;;;;;5114496;28;20097;-75
2021/08/31 05:55:18;;;;;;;1.25;1.15;;;18.60;99.90;;;;;;5114619;28;20019;-75
2021/08/31 05:57:44;;;;;;;0.90;0.90;;;18.60;99.90;;;;;;5113921;28;20356;-75
2021/08/31 06:00:13;;;;;;;1.42;1.33;;;18.70;99.90;;;;;;5114383;28;20110;-75
2021/08/31 06:02:39;;;;;;;1.30;1.00;;;18.80;99.90;;;;;;5113911;28;20019;-75
2021/08/31 06:05:08;;;;;;;1.20;1.10;;;18.80;99.90;;;;;;5113896;28;20367;-75
2021/08/31 06:07:34;;;;;;;1.00;1.00;;;18.90;99.90;;;;;;5094818;28;20028;-75
2021/08/31 06:10:02;;;;;;;1.55;1.25;;;18.90;99.90;;;;;;5113821;28;20475;-75
2021/08/31 06:12:28;;;;;;;2.38;1.10;;;18.80;99.90;;;;;;5113680;28;20023;-75
2021/08/31 06:14:54;;;;;;;1.35;0.90;;;18.90;99.90;;;;;;5113975;28;20053;-75
2021/08/31 06:17:21;;;;;;;1.17;1.15;;;18.90;99.90;;;;;;5113278;28;20379;-75
2021/08/31 06:19:47;;;;;;;1.10;1.02;;;18.90;99.90;;;;;;5114098;28;20467;-75
2021/08/31 06:22:12;;;;;;;2.97;1.10;;;18.90;99.90;;;;;;5113520;28;20080;-74
2021/08/31 06:24:38;;;;;;;6.22;1.02;;;19.10;99.90;;;;;;5095450;28;20394;-75
2021/08/31 06:27:04;;;;;;;2.67;1.17;;;19.10;99.80;;;;;;5094435;28;20471;-75
2021/08/31 06:29:31;;;;;;;2.15;1.00;;;19.20;99.70;;;;;;5094304;28;20459;-75
2021/08/31 06:31:56;;;;;;;1.50;1.00;;;19.30;99.70;;;;;;5112131;28;20016;-75
2021/08/31 06:34:22;;;;;;;0.93;0.90;;;19.30;99.70;;;;;;5112707;28;20149;-75
2021/08/31 06:36:48;;;;;;;1.02;1.02;;;19.40;99.60;;;;;;5110689;28;20072;-75
2021/08/31 06:39:14;;;;;;;0.80;0.80;;;19.50;99.50;;;;;;5092253;28;20043;-75
2021/08/31 06:41:40;;;;;;;0.80;0.80;;;19.50;99.10;;;;;;5110726;28;20015;-75
2021/08/31 06:44:06;;;;;;;2.92;1.27;;;19.60;99.00;;;;;;5091949;28;20023;-75
2021/08/31 06:46:32;;;;;;;1.88;1.27;;;19.70;99.00;;;;;;5108700;28;20541;-77
2021/08/31 06:48:58;;;;;;;0.80;0.80;;;19.80;98.80;;;;;;5108895;28;20539;-77
2021/08/31 06:51:24;;;;;;;3.20;1.15;;;19.90;98.80;;;;;;5109466;28;20012;-77
2021/08/31 06:53:50;;;;;;;1.92;0.80;;;20.00;98.80;;;;;;5108841;28;20490;-77
2021/08/31 06:56:16;;;;;;;1.02;0.93;;;20.10;98.60;;;;;;5110367;28;20511;-77
2021/08/31 06:58:41;;;;;;;0.95;0.95;;;20.10;98.40;;;;;;5112180;28;20019;-77
2021/08/31 07:01:07;;;;;;;3.05;1.20;;;20.20;97.90;;;;;;5111954;28;20028;-78
2021/08/31 07:03:33;;;;;;;0.93;0.88;;;20.30;97.70;;;;;;5111775;28;20103;-77
2021/08/31 07:05:59;;;;;;;1.40;0.98;;;20.30;97.10;;;;;;5112125;28;20024;-78
2021/08/31 07:08:24;;;;;;;5.07;1.20;;;20.40;98.10;;;;;;5111788;28;20028;-77
2021/08/31 07:10:50;;;;;;;2.33;1.63;;;20.50;99.10;;;;;;5093844;28;20020;-77
2021/08/31 07:13:16;;;;;;;2.17;1.80;;;20.50;99.10;;;;;;5093680;28;20051;-77
2021/08/31 07:15:42;;;;;;;2.00;1.40;;;20.50;99.80;;;;;;5093477;28;20031;-77
2021/08/31 07:18:11;;;;;;;2.67;1.20;;;20.60;99.60;;;;;;5107289;28;20031;-77
2021/08/31 07:20:37;;;;;;;1.63;1.40;;;20.70;97.70;;;;;;5102083;28;20375;-77
2021/08/31 07:23:02;;;;;;;1.23;1.13;;;20.60;97.40;;;;;;5103282;28;20019;-77
2021/08/31 07:25:28;;;;;;;1.40;1.30;;;20.60;97.40;;;;;;5106915;28;20180;-77
2021/08/31 07:27:54;;;;;;;1.33;1.00;;;20.60;97.30;;;;;;5099398;28;20080;-77
2021/08/31 07:30:20;;;;;;;1.52;1.42;;;20.60;97.70;;;;;;5111220;28;20020;-77
2021/08/31 07:32:45;;;;;;;1.50;1.40;;;20.60;98.00;;;;;;5092308;28;20051;-76
2021/08/31 07:35:12;;;;;;;9.10;1.42;;;20.70;98.40;;;;;;5113755;28;20074;-75
2021/08/31 07:37:37;;;;;;;2.55;1.00;;;20.70;97.90;;;;;;5105589;28;20035;-75
2021/08/31 07:40:04;;;;;;;1.35;1.10;;;20.70;98.00;;;;;;5112513;28;20039;-75
2021/08/31 07:42:30;;;;;;;0.80;0.80;;;20.70;97.90;;;;;;5096140;28;20030;-75
2021/08/31 07:44:56;;;;;;;2.83;1.23;;;20.70;97.70;;;;;;5115705;28;20028;-76
2021/08/31 07:47:22;;;;;;;3.67;0.90;;;20.70;96.70;;;;;;5114811;28;20028;-75
2021/08/31 07:49:47;;;;;;;3.67;1.00;;;20.80;96.70;;;;;;5114748;27;20090;-75
2021/08/31 07:52:13;;;;;;;5.85;1.38;;;20.80;97.00;;;;;;5116198;28;20073;-75
2021/08/31 07:54:39;;;;;;;0.70;0.70;;;20.80;96.60;;;;;;5114462;28;20477;-75
2021/08/31 07:57:08;;;;;;;1.52;0.90;;;20.90;96.40;;;;;;5114653;28;20446;-76
2021/08/31 07:59:35;;;;;;;1.38;0.80;;;20.90;96.30;;;;;;5114239;28;20098;-76
2021/08/31 08:02:01;;;;;;;1.10;1.00;;;20.90;96.40;;;;;;5095499;28;20016;-76
2021/08/31 08:04:29;;;;;;;1.05;0.90;;;21.00;95.90;;;;;;5114807;28;20032;-76
2021/08/31 08:06:55;;;;;;;3.45;1.20;;;21.00;96.00;;;;;;5114327;28;20019;-75
2021/08/31 08:09:21;;;;;;;2.38;0.93;;;21.00;96.40;;;;;;5114539;28;20479;-75
2021/08/31 08:11:46;;;;;;;2.17;1.30;;;21.00;96.30;;;;;;5113987;28;20020;-75
2021/08/31 08:14:13;;;;;;;5.80;0.90;;;21.10;96.40;;;;;;5095749;28;20023;-75
2021/08/31 08:16:39;;;;;;;1.25;1.15;;;21.20;96.30;;;;;;5108130;28;20104;-75
2021/08/31 08:19:04;;;;;;;1.20;1.10;;;21.10;95.90;;;;;;5087258;28;20349;-75
2021/08/31 08:21:30;;;;;;;0.90;0.80;;;21.00;96.30;;;;;;5112077;28;20012;-75
2021/08/31 08:23:56;;;;;;;2.45;0.70;;;21.10;96.00;;;;;;5110799;28;20487;-75
2021/08/31 08:26:22;;;;;;;1.40;0.90;;;21.10;96.20;;;;;;5109683;28;20542;-75
2021/08/31 08:28:48;;;;;;;1.30;1.15;;;21.10;96.30;;;;;;5095312;28;20028;-75
2021/08/31 08:31:14;;;;;;;1.02;1.02;;;21.10;95.60;;;;;;5113521;28;20050;-75
2021/08/31 08:33:39;;;;;;;1.85;0.77;;;21.00;95.70;;;;;;5095032;28;20032;-75
2021/08/31 08:36:07;;;;;;;1.08;0.98;;;21.10;96.10;;;;;;5113773;28;20023;-75
2021/08/31 08:38:34;;;;;;;0.70;0.70;;;21.00;96.50;;;;;;5091482;28;20040;-75
2021/08/31 08:41:04;;;;;;;1.35;1.25;;;21.10;96.30;;;;;;5090645;28;20028;-75
2021/08/31 08:43:31;;;;;;;3.55;0.88;;;21.00;95.70;;;;;;5090298;28;20028;-75
2021/08/31 08:46:00;;;;;;;1.08;1.02;;;21.10;96.10;;;;;;5088980;28;20123;-75
2021/08/31 08:48:26;;;;;;;2.03;1.00;;;21.10;96.10;;;;;;5091479;28;20395;-76
2021/08/31 08:50:55;;;;;;;1.35;0.85;;;21.20;96.70;;;;;;5093041;28;20525;-76
2021/08/31 08:53:22;;;;;;;0.90;0.88;;;21.20;96.10;;;;;;5094685;28;20042;-76
2021/08/31 08:55:48;;;;;;;1.05;1.00;;;21.10;95.80;;;;;;5095173;28;20030;-76
2021/08/31 08:58:15;;;;;;;1.77;1.02;;;21.20;96.40;;;;;;5090116;28;20035;-76
2021/08/31 09:00:53;;;;;;;0.88;0.85;;;21.20;97.40;;;;;;5087853;28;20035;-76
2021/08/31 09:03:21;;;;;;;3.30;1.27;;;21.30;97.80;;;;;;5086238;28;20048;-76
2021/08/31 09:05:48;;;;;;;2.47;1.70;;;21.40;97.30;;;;;;5088720;28;20111;-77
2021/08/31 09:08:14;;;;;;;2.03;1.08;;;21.40;97.30;;;;;;5089895;28;20506;-76
2021/08/31 09:10:44;;;;;;;2.92;1.10;;;21.40;95.80;;;;;;5088891;28;20050;-76
2021/08/31 09:13:10;;;;;;;4.38;1.20;;;21.40;95.80;;;;;;5087199;28;20032;-76
2021/08/31 09:15:39;;;;;;;0.88;0.88;;;21.40;96.70;;;;;;5086821;28;20024;-76
2021/08/31 09:20:37;;;;;;;2.92;1.10;;;21.50;96.30;;;;;;5092807;28;20024;-76
2021/08/31 09:23:05;;;;;;;2.15;1.73;;;21.60;96.00;;;;;;5093471;28;20032;-75
2021/08/31 09:25:39;;;;;;;1.48;1.15;;;21.60;95.70;;;;;;5093807;28;20147;-75
2021/08/31 09:28:24;;;;;;;1.00;0.90;;;21.60;96.20;;;;;;5088882;28;20077;-75
2021/08/31 09:31:14;;;;;;;1.83;1.13;;;21.70;96.20;;;;;;5091945;28;20031;-75
2021/08/31 09:33:46;;;;;;;1.33;0.90;;;21.70;95.30;;;;;;5093614;28;20543;-76
2021/08/31 09:36:13;;;;;;;3.97;1.17;;;21.70;95.10;;;;;;5094149;28;20115;-75
2021/08/31 09:38:42;;;;;;;7.30;1.27;;;21.70;95.20;;;;;;5104138;28;20047;-76
2021/08/31 09:41:07;;;;;;;1.05;1.05;;;21.70;95.60;;;;;;5114581;28;20030;-75
2021/08/31 09:43:33;;;;;;;1.60;1.02;;;21.70;95.40;;;;;;5096177;28;20020;-76
2021/08/31 09:45:59;;;;;;;0.90;0.90;;;21.80;96.40;;;;;;5096297;28;20072;-75
2021/08/31 09:48:25;;;;;;;1.45;1.00;;;21.90;96.40;;;;;;5114504;28;20019;-75
2021/08/31 09:50:57;;;;;;;1.08;0.98;;;21.80;95.50;;;;;;5113975;28;20046;-75
2021/08/31 09:53:28;;;;;;;1.00;1.00;;;21.80;95.60;;;;;;5114321;28;20103;-75
2021/08/31 09:56:03;;;;;;;2.00;1.10;;;22.00;95.20;;;;;;5114022;28;20511;-75
2021/08/31 09:58:30;;;;;;;4.38;1.27;;;22.00;94.90;;;;;;5113069;28;20031;-75
2021/08/31 10:00:56;;;;;;;4.78;1.17;;;22.10;94.40;;;;;;5113108;28;20478;-75
2021/08/31 10:03:24;;;;;;;1.45;1.10;;;22.10;95.80;;;;;;5112378;28;20027;-75
2021/08/31 10:05:52;;;;;;;1.35;0.80;;;22.20;95.60;;;;;;5113565;28;20031;-75
2021/08/31 10:08:19;;;;;;;1.27;1.27;;;22.30;96.30;;;;;;5112639;28;20030;-75
2021/08/31 10:10:49;;;;;;;3.72;1.17;;;22.40;96.10;;;;;;5111628;28;20031;-75
2021/08/31 10:13:18;;;;;;;2.50;1.00;;;22.50;96.00;;;;;;5112461;28;20509;-75
2021/08/31 10:15:49;;;;;;;1.50;1.17;;;22.50;95.20;;;;;;5109166;28;20023;-75
2021/08/31 10:18:17;;;;;;;1.00;1.00;;;22.60;95.80;;;;;;5113091;28;20066;-75
2021/08/31 10:21:05;;;;;;;1.77;1.13;;;22.60;95.60;;;;;;5113320;28;20042;-75
2021/08/31 10:23:36;;;;;;;1.00;0.90;;;22.70;96.00;;;;;;5094956;28;20062;-75
2021/08/31 10:26:31;;;;;;;1.80;1.15;;;22.80;96.40;;;;;;5113533;28;20066;-75
2021/08/31 10:29:16;;;;;;;0.95;0.95;;;23.00;95.30;;;;;;5094352;28;20023;-75
2021/08/31 10:31:43;;;;;;;1.02;1.00;;;23.00;95.30;;;;;;5098264;28;20129;-75
2021/08/31 10:34:43;;;;;;;1.45;1.27;;;23.10;94.90;;;;;;5094500;28;20038;-75
2021/08/31 10:37:16;;;;;;;0.90;0.90;;;23.20;93.70;;;;;;5061797;28;20043;-75
2021/08/31 10:39:43;;;;;;;2.00;1.23;;;23.10;93.90;;;;;;5112592;28;20036;-75
2021/08/31 10:42:10;;;;;;;1.35;1.20;;;23.00;94.10;;;;;;5112897;28;20136;-75
2021/08/31 10:44:42;;;;;;;2.08;1.35;;;23.10;93.60;;;;;;5112648;28;20020;-75
2021/08/31 10:47:14;;;;;;;1.92;1.20;;;23.10;93.50;;;;;;5112727;28;20024;-75
2021/08/31 10:49:58;;;;;;;3.08;1.20;;;23.30;94.90;;;;;;5113015;28;20016;-75
2021/08/31 10:52:41;;;;;;;3.88;1.35;;;23.50;93.80;;;;;;5112342;28;20083;-75
2021/08/31 10:55:24;;;;;;;2.80;1.20;;;23.50;94.10;;;;;;5112339;28;20031;-75
2021/08/31 10:57:52;;;;;;;1.38;1.27;;;23.50;92.80;;;;;;5113027;28;20106;-75
2021/08/31 11:00:18;;;;;;;1.90;1.20;;;23.50;92.70;;;;;;5113234;28;20023;-75
2021/08/31 11:02:49;;;;;;;1.08;1.08;;;23.50;92.50;;;;;;5112991;28;20360;-75
2021/08/31 11:05:21;;;;;;;3.45;1.38;;;23.60;92.90;;;;;;5112952;28;20123;-75
2021/08/31 11:08:11;;;;;;;3.65;1.38;;;23.60;92.50;;;;;;5113066;28;20031;-75
2021/08/31 11:10:40;;;;;;;1.40;1.30;;;23.60;92.10;;;;;;5092444;28;20494;-75
2021/08/31 11:13:16;;;;;;;2.08;1.40;;;23.60;92.50;;;;;;5079747;28;20110;-76
2021/08/31 11:15:43;;;;;;;5.90;1.98;;;23.70;92.20;;;;;;5112772;28;20032;-75
2021/08/31 11:18:14;;;;;;;2.72;1.10;;;23.80;92.40;;;;;;5113007;28;20045;-75
2021/08/31 11:20:41;;;;;;;1.80;1.35;;;23.80;91.70;;;;;;5112865;28;20030;-76
2021/08/31 11:23:22;;;;;;;6.95;1.63;;;23.80;92.00;;;;;;5113106;28;20016;-76
2021/08/31 11:25:55;;;;;;;2.85;1.40;;;23.80;91.70;;;;;;5112941;28;20028;-76
2021/08/31 11:28:29;;;;;;;1.08;1.00;;;24.10;93.20;;;;;;5112896;28;20020;-75
2021/08/31 11:31:16;;;;;;;1.60;1.50;;;24.20;92.60;;;;;;5112621;28;20157;-75
2021/08/31 11:33:44;;;;;;;1.88;1.27;;;24.20;92.20;;;;;;5094587;28;20031;-76
2021/08/31 11:36:16;;;;;;;5.65;1.58;;;24.40;91.10;;;;;;5094228;28;20521;-75
2021/08/31 11:38:46;;;;;;;2.60;1.60;;;24.50;91.30;;;;;;5112426;28;20135;-76
2021/08/31 11:41:16;;;;;;;2.00;1.70;;;24.40;90.30;;;;;;5112664;28;20381;-75
2021/08/31 11:43:43;;;;;;;1.90;1.80;;;24.40;91.20;;;;;;5112916;28;20020;-75
2021/08/31 11:46:09;;;;;;;4.50;1.50;;;24.50;90.10;;;;;;5111114;28;20085;-75
2021/08/31 11:48:35;;;;;;;2.15;2.03;;;24.50;90.30;;;;;;5112174;28;20076;-76
2021/08/31 11:51:03;;;;;;;3.65;1.48;;;24.50;91.00;;;;;;5093702;28;20031;-75
2021/08/31 11:53:29;;;;;;;2.30;2.08;;;24.50;90.50;;;;;;5112357;28;20015;-75
2021/08/31 11:56:04;;;;;;;2.83;1.70;;;24.50;90.10;;;;;;5094223;28;20039;-76
2021/08/31 11:58:31;;;;;;;3.08;1.40;;;24.40;89.80;;;;;;5111834;28;20063;-75
2021/08/31 12:00:57;;;;;;;1.88;1.40;;;24.50;91.10;;;;;;5093340;28;20197;-75
2021/08/31 12:03:30;;;;;;;1.35;1.25;;;24.70;91.40;;;;;;5109116;28;20102;-75
2021/08/31 12:06:11;;;;;;;4.30;1.98;;;24.90;90.70;;;;;;5101010;28;20027;-76
2021/08/31 12:08:46;;;;;;;3.27;1.40;;;24.80;89.10;;;;;;5107356;28;20486;-75
2021/08/31 12:11:15;;;;;;;3.92;2.22;;;24.90;88.60;;;;;;5108231;28;20265;-75
2021/08/31 12:13:42;;;;;;;2.60;1.45;;;24.90;88.70;;;;;;5089330;28;20039;-75
2021/08/31 12:16:11;;;;;;;2.65;1.52;;;25.00;90.00;;;;;;5090926;28;20043;-75
2021/08/31 12:18:37;;;;;;;3.03;1.88;;;25.00;90.30;;;;;;5108603;28;20020;-75
2021/08/31 12:21:14;;;;;;;5.50;2.45;;;25.10;89.70;;;;;;5110706;28;20495;-75
2021/08/31 12:23:40;;;;;;;2.08;1.40;;;25.00;90.30;;;;;;5110957;28;20470;-75
2021/08/31 12:26:06;;;;;;;5.20;1.60;;;24.80;90.70;;;;;;5096562;28;20390;-75
2021/08/31 12:28:32;;;;;;;4.38;1.77;;;24.80;90.20;;;;;;5108936;28;20030;-75
2021/08/31 12:31:12;;;;;;;2.25;1.98;;;24.90;90.90;;;;;;5112080;28;20027;-76
2021/08/31 12:33:38;;;;;;;1.88;1.50;;;25.00;89.80;;;;;;5105520;28;20023;-75
2021/08/31 12:36:09;;;;;;;1.58;1.45;;;24.90;89.70;;;;;;5109301;28;20032;-74
2021/08/31 12:38:41;;;;;;;4.22;2.13;;;25.00;90.30;;;;;;5104964;28;20126;-75
2021/08/31 12:41:11;;;;;;;3.15;1.50;;;25.20;91.00;;;;;;5109850;28;20673;-75
2021/08/31 12:43:43;;;;;;;3.25;1.77;;;25.40;90.10;;;;;;5109131;28;20034;-76
2021/08/31 12:46:16;;;;;;;2.53;1.77;;;25.50;90.00;;;;;;5102775;28;20413;-74
2021/08/31 12:48:46;;;;;;;1.80;1.50;;;25.40;90.30;;;;;;5105477;28;20047;-75
2021/08/31 12:51:28;;;;;;;3.97;1.70;;;25.40;90.20;;;;;;5088284;28;20545;-75
2021/08/31 12:53:56;;;;;;;2.55;1.45;;;25.30;89.90;;;;;;5108329;28;20401;-75